sensor_id;sensor_type;location;lat;lon;timestamp;pressure;altitude;pressure_sealevel;temperature;humidity
52735;BME280;38631;47.572;10.704;2022-09-20T00:00:41;93003.84;;;6.43;93.76
52735;BME280;38631;47.572;10.704;2022-09-20T00:03:08;93000.69;;;6.20;93.84
52735;BME280;38631;47.572;10.704;2022-09-20T00:05:37;92999.66;;;6.11;94.55
52735;BME280;38631;47.572;10.704;2022-09-20T00:08:06;92999.91;;;6.25;93.99
52735;BME280;38631;47.572;10.704;2022-09-20T00:10:33;93003.59;;;6.24;94.25
52735;BME280;38631;47.572;10.704;2022-09-20T00:13:02;93004.66;;;6.23;92.68
52735;BME280;38631;47.572;10.704;2022-09-20T00:15:29;92997.00;;;6.26;93.32
52735;BME280;38631;47.572;10.704;2022-09-20T00:17:54;92999.91;;;6.25;92.60
52735;BME280;38631;47.572;10.704;2022-09-20T00:20:21;92993.84;;;6.24;93.21
52735;BME280;38631;47.572;10.704;2022-09-20T00:22:46;92989.66;;;6.03;93.60
52735;BME280;38631;47.572;10.704;2022-09-20T00:25:14;92993.06;;;5.98;92.89
52735;BME280;38631;47.572;10.704;2022-09-20T00:27:40;92982.00;;;5.96;93.04
52735;BME280;38631;47.572;10.704;2022-09-20T00:30:06;92993.84;;;5.99;92.53
52735;BME280;38631;47.572;10.704;2022-09-20T00:32:31;92983.28;;;5.89;92.81
52735;BME280;38631;47.572;10.704;2022-09-20T00:34:57;92970.13;;;6.04;94.01
52735;BME280;38631;47.572;10.704;2022-09-20T00:37:39;92975.94;;;6.06;92.60
52735;BME280;38631;47.572;10.704;2022-09-20T00:40:08;92970.41;;;6.08;91.53
52735;BME280;38631;47.572;10.704;2022-09-20T00:42:34;92977.00;;;6.00;93.30
52735;BME280;38631;47.572;10.704;2022-09-20T00:45:01;92974.34;;;6.10;93.05
52735;BME280;38631;47.572;10.704;2022-09-20T00:47:37;92966.97;;;5.97;92.47
52735;BME280;38631;47.572;10.704;2022-09-20T00:50:21;92956.69;;;6.11;92.08
52735;BME280;38631;47.572;10.704;2022-09-20T00:52:53;92955.59;;;6.17;91.85
52735;BME280;38631;47.572;10.704;2022-09-20T00:55:19;92950.31;;;6.17;91.73
52735;BME280;38631;47.572;10.704;2022-09-20T00:57:45;92956.16;;;6.14;91.28
52735;BME280;38631;47.572;10.704;2022-09-20T01:00:11;92958.25;;;6.17;90.99
52735;BME280;38631;47.572;10.704;2022-09-20T01:02:42;92953.78;;;6.17;90.09
52735;BME280;38631;47.572;10.704;2022-09-20T01:05:11;92961.41;;;6.19;90.13
52735;BME280;38631;47.572;10.704;2022-09-20T01:07:38;92961.16;;;6.20;90.22
52735;BME280;38631;47.572;10.704;2022-09-20T01:10:04;92957.75;;;6.15;91.96
52735;BME280;38631;47.572;10.704;2022-09-20T01:12:32;92961.41;;;6.14;90.54
52735;BME280;38631;47.572;10.704;2022-09-20T01:15:01;92958.25;;;6.12;90.96
52735;BME280;38631;47.572;10.704;2022-09-20T01:17:29;92956.44;;;6.12;91.46
52735;BME280;38631;47.572;10.704;2022-09-20T01:25:54;92950.88;;;5.32;92.23
52735;BME280;38631;47.572;10.704;2022-09-20T01:28:22;92946.41;;;5.58;93.74
52735;BME280;38631;47.572;10.704;2022-09-20T01:33:37;92942.72;;;5.79;92.64
52735;BME280;38631;47.572;10.704;2022-09-20T01:36:04;92941.16;;;5.53;91.88
52735;BME280;38631;47.572;10.704;2022-09-20T01:41:27;92952.19;;;5.24;93.35
52735;BME280;38631;47.572;10.704;2022-09-20T01:44:10;92949.03;;;5.17;92.93
52735;BME280;38631;47.572;10.704;2022-09-20T01:46:38;92950.06;;;5.26;92.42
52735;BME280;38631;47.572;10.704;2022-09-20T01:49:26;92951.06;;;4.94;93.15
52735;BME280;38631;47.572;10.704;2022-09-20T02:08:29;92949.25;;;5.00;93.59
52735;BME280;38631;47.572;10.704;2022-09-20T02:11:03;92947.13;;;4.92;93.40
52735;BME280;38631;47.572;10.704;2022-09-20T02:21:37;92946.09;;;5.08;94.20
52735;BME280;38631;47.572;10.704;2022-09-20T02:24:22;92940.56;;;5.05;93.20
52735;BME280;38631;47.572;10.704;2022-09-20T02:29:59;92940.06;;;5.28;92.58
52735;BME280;38631;47.572;10.704;2022-09-20T02:33:02;92947.44;;;5.31;92.54
52735;BME280;38631;47.572;10.704;2022-09-20T02:35:51;92937.66;;;5.11;91.95
52735;BME280;38631;47.572;10.704;2022-09-20T02:38:41;92932.63;;;4.79;92.62
52735;BME280;38631;47.572;10.704;2022-09-20T02:41:44;92932.06;;;4.72;94.21
52735;BME280;38631;47.572;10.704;2022-09-20T02:47:25;92936.88;;;5.06;93.82
52735;BME280;38631;47.572;10.704;2022-09-20T02:50:10;92938.72;;;5.00;93.82
52735;BME280;38631;47.572;10.704;2022-09-20T03:11:59;92956.56;;;4.88;94.46
52735;BME280;38631;47.572;10.704;2022-09-20T03:14:33;92958.00;;;4.48;94.07
52735;BME280;38631;47.572;10.704;2022-09-20T03:22:44;92972.63;;;4.91;94.06
52735;BME280;38631;47.572;10.704;2022-09-20T03:31:24;92972.59;;;4.86;94.61
52735;BME280;38631;47.572;10.704;2022-09-20T03:34:15;92975.78;;;4.88;94.76
52735;BME280;38631;47.572;10.704;2022-09-20T03:42:29;92978.72;;;4.97;95.19
52735;BME280;38631;47.572;10.704;2022-09-20T03:45:28;92986.09;;;5.05;95.86
52735;BME280;38631;47.572;10.704;2022-09-20T03:48:22;92978.44;;;4.93;95.42
52735;BME280;38631;47.572;10.704;2022-09-20T03:54:54;92982.97;;;5.18;95.76
52735;BME280;38631;47.572;10.704;2022-09-20T04:06:03;92977.44;;;5.20;97.25
52735;BME280;38631;47.572;10.704;2022-09-20T04:11:37;92974.06;;;5.30;96.54
52735;BME280;38631;47.572;10.704;2022-09-20T04:14:22;92968.22;;;5.17;96.30
52735;BME280;38631;47.572;10.704;2022-09-20T04:19:51;92970.06;;;5.12;96.35
52735;BME280;38631;47.572;10.704;2022-09-20T04:22:22;92973.75;;;5.26;96.05
52735;BME280;38631;47.572;10.704;2022-09-20T04:25:34;92980.63;;;5.22;96.02
52735;BME280;38631;47.572;10.704;2022-09-20T04:28:13;92976.34;;;5.01;95.43
52735;BME280;38631;47.572;10.704;2022-09-20T04:30:41;92964.78;;;5.02;95.62
52735;BME280;38631;47.572;10.704;2022-09-20T04:33:30;92970.53;;;4.98;96.70
52735;BME280;38631;47.572;10.704;2022-09-20T04:36:13;92969.53;;;5.05;95.95
52735;BME280;38631;47.572;10.704;2022-09-20T04:39:33;92972.16;;;5.00;96.64
52735;BME280;38631;47.572;10.704;2022-09-20T04:45:12;92966.63;;;5.11;96.25
52735;BME280;38631;47.572;10.704;2022-09-20T04:59:01;92967.91;;;4.93;97.17
52735;BME280;38631;47.572;10.704;2022-09-20T05:01:52;92977.44;;;5.15;96.95
52735;BME280;38631;47.572;10.704;2022-09-20T05:10:37;92972.59;;;4.86;95.28
52735;BME280;38631;47.572;10.704;2022-09-20T05:19:12;92988.09;;;4.72;96.51
52735;BME280;38631;47.572;10.704;2022-09-20T05:21:53;92980.28;;;4.93;95.75
52735;BME280;38631;47.572;10.704;2022-09-20T05:29:55;92985.50;;;4.78;94.99
52735;BME280;38631;47.572;10.704;2022-09-20T05:32:34;92987.16;;;5.04;94.82
52735;BME280;38631;47.572;10.704;2022-09-20T05:35:27;92988.94;;;4.93;95.27
52735;BME280;38631;47.572;10.704;2022-09-20T05:38:13;92995.84;;;5.05;94.45
52735;BME280;38631;47.572;10.704;2022-09-20T05:41:05;92990.84;;;5.13;93.82
52735;BME280;38631;47.572;10.704;2022-09-20T05:43:38;92993.47;;;5.13;94.93
52735;BME280;38631;47.572;10.704;2022-09-20T05:47:09;92995.59;;;5.16;94.81
52735;BME280;38631;47.572;10.704;2022-09-20T06:01:10;92993.50;;;5.29;94.32
52735;BME280;38631;47.572;10.704;2022-09-20T06:03:43;92995.38;;;5.28;94.69
52735;BME280;38631;47.572;10.704;2022-09-20T06:06:21;92993.28;;;5.35;95.04
52735;BME280;38631;47.572;10.704;2022-09-20T06:09:03;92989.56;;;5.21;94.78
52735;BME280;38631;47.572;10.704;2022-09-20T06:11:42;92988.22;;;5.18;95.63
52735;BME280;38631;47.572;10.704;2022-09-20T06:14:16;92981.16;;;5.29;95.45
52735;BME280;38631;47.572;10.704;2022-09-20T06:16:58;92982.22;;;5.38;95.11
52735;BME280;38631;47.572;10.704;2022-09-20T06:19:38;92989.09;;;5.50;95.49
52735;BME280;38631;47.572;10.704;2022-09-20T06:24:46;92991.44;;;5.56;95.62
52735;BME280;38631;47.572;10.704;2022-09-20T06:27:17;92992.75;;;5.59;95.09
52735;BME280;38631;47.572;10.704;2022-09-20T06:29:52;93000.41;;;5.60;95.65
52735;BME280;38631;47.572;10.704;2022-09-20T06:32:19;93001.75;;;5.73;94.48
52735;BME280;38631;47.572;10.704;2022-09-20T06:34:44;93000.16;;;5.67;92.92
52735;BME280;38631;47.572;10.704;2022-09-20T06:37:42;93004.38;;;5.68;93.88
52735;BME280;38631;47.572;10.704;2022-09-20T06:40:41;93003.84;;;5.56;93.28
52735;BME280;38631;47.572;10.704;2022-09-20T06:43:43;93005.16;;;5.63;94.46
52735;BME280;38631;47.572;10.704;2022-09-20T06:46:09;93012.56;;;5.77;94.40
52735;BME280;38631;47.572;10.704;2022-09-20T06:48:36;93009.94;;;6.02;91.32
52735;BME280;38631;47.572;10.704;2022-09-20T06:51:05;93014.44;;;6.12;92.13
52735;BME280;38631;47.572;10.704;2022-09-20T06:53:31;93012.78;;;6.52;90.77
52735;BME280;38631;47.572;10.704;2022-09-20T06:55:58;93020.19;;;6.50;88.93
52735;BME280;38631;47.572;10.704;2022-09-20T06:58:24;93011.44;;;6.60;89.20
52735;BME280;38631;47.572;10.704;2022-09-20T07:00:50;93006.94;;;6.70;88.75
52735;BME280;38631;47.572;10.704;2022-09-20T07:03:16;93002.66;;;6.85;87.13
52735;BME280;38631;47.572;10.704;2022-09-20T07:05:43;93003.34;;;7.11;86.74
52735;BME280;38631;47.572;10.704;2022-09-20T07:08:09;93000.56;;;7.36;85.84
52735;BME280;38631;47.572;10.704;2022-09-20T07:10:34;93003.78;;;7.28;85.67
52735;BME280;38631;47.572;10.704;2022-09-20T07:13:01;93008.38;;;7.52;84.44
52735;BME280;38631;47.572;10.704;2022-09-20T07:15:27;92998.91;;;7.51;83.32
52735;BME280;38631;47.572;10.704;2022-09-20T07:17:53;93003.53;;;7.69;84.28
52735;BME280;38631;47.572;10.704;2022-09-20T07:20:19;93003.97;;;7.82;83.81
52735;BME280;38631;47.572;10.704;2022-09-20T07:22:45;93001.53;;;7.90;83.01
52735;BME280;38631;47.572;10.704;2022-09-20T07:25:10;93015.09;;;7.78;82.76
52735;BME280;38631;47.572;10.704;2022-09-20T07:27:36;93007.84;;;7.94;84.09
52735;BME280;38631;47.572;10.704;2022-09-20T07:30:02;93010.03;;;8.16;83.12
52735;BME280;38631;47.572;10.704;2022-09-20T07:32:28;93010.09;;;8.11;81.65
52735;BME280;38631;47.572;10.704;2022-09-20T07:34:54;93012.84;;;8.30;82.05
52735;BME280;38631;47.572;10.704;2022-09-20T07:37:19;93011.22;;;8.34;82.75
52735;BME280;38631;47.572;10.704;2022-09-20T07:39:45;93012.38;;;8.52;83.28
52735;BME280;38631;47.572;10.704;2022-09-20T07:42:11;93015.31;;;8.51;82.68
52735;BME280;38631;47.572;10.704;2022-09-20T07:44:37;93014.59;;;8.69;83.00
52735;BME280;38631;47.572;10.704;2022-09-20T07:47:07;93012.28;;;8.62;81.58
52735;BME280;38631;47.572;10.704;2022-09-20T07:49:34;93012.47;;;8.71;80.87
52735;BME280;38631;47.572;10.704;2022-09-20T07:51:59;93027.72;;;8.79;80.85
52735;BME280;38631;47.572;10.704;2022-09-20T07:54:25;93018.81;;;8.70;82.26
52735;BME280;38631;47.572;10.704;2022-09-20T07:56:51;93023.28;;;8.51;83.11
52735;BME280;38631;47.572;10.704;2022-09-20T07:59:17;93024.84;;;8.52;81.33
52735;BME280;38631;47.572;10.704;2022-09-20T08:01:42;93027.22;;;8.53;83.14
52735;BME280;38631;47.572;10.704;2022-09-20T08:04:08;93031.75;;;8.48;83.10
52735;BME280;38631;47.572;10.704;2022-09-20T08:06:39;93026.69;;;8.51;84.03
52735;BME280;38631;47.572;10.704;2022-09-20T08:09:06;93038.69;;;8.38;81.32
52735;BME280;38631;47.572;10.704;2022-09-20T08:11:32;93033.41;;;8.38;81.23
52735;BME280;38631;47.572;10.704;2022-09-20T08:13:59;93037.59;;;8.44;83.50
52735;BME280;38631;47.572;10.704;2022-09-20T08:16:25;93030.88;;;8.57;82.97
52735;BME280;38631;47.572;10.704;2022-09-20T08:18:53;93027.47;;;8.52;82.85
52735;BME280;38631;47.572;10.704;2022-09-20T08:21:24;93030.06;;;8.57;82.04
52735;BME280;38631;47.572;10.704;2022-09-20T08:23:50;93029.81;;;8.58;80.25
52735;BME280;38631;47.572;10.704;2022-09-20T08:26:17;93026.75;;;8.70;81.71
52735;BME280;38631;47.572;10.704;2022-09-20T08:28:45;93029.72;;;8.69;81.01
52735;BME280;38631;47.572;10.704;2022-09-20T08:31:13;93025.72;;;8.71;81.61
52735;BME280;38631;47.572;10.704;2022-09-20T08:33:39;93023.91;;;8.67;82.48
52735;BME280;38631;47.572;10.704;2022-09-20T08:36:06;93032.06;;;8.70;82.81
52735;BME280;38631;47.572;10.704;2022-09-20T08:38:32;93029.41;;;8.70;83.90
52735;BME280;38631;47.572;10.704;2022-09-20T08:41:02;93030.72;;;8.73;83.86
52735;BME280;38631;47.572;10.704;2022-09-20T08:43:33;93036.41;;;8.85;81.77
52735;BME280;38631;47.572;10.704;2022-09-20T08:46:01;93032.91;;;8.90;82.24
52735;BME280;38631;47.572;10.704;2022-09-20T08:48:29;93038.72;;;8.92;79.17
52735;BME280;38631;47.572;10.704;2022-09-20T08:50:57;93028.66;;;8.94;82.32
52735;BME280;38631;47.572;10.704;2022-09-20T08:53:23;93032.75;;;8.81;78.65
52735;BME280;38631;47.572;10.704;2022-09-20T08:55:48;93028.72;;;8.89;80.13
52735;BME280;38631;47.572;10.704;2022-09-20T08:58:14;93032.47;;;8.82;76.99
52735;BME280;38631;47.572;10.704;2022-09-20T09:00:45;93035.00;;;8.93;78.92
52735;BME280;38631;47.572;10.704;2022-09-20T09:03:12;93027.75;;;9.03;78.59
52735;BME280;38631;47.572;10.704;2022-09-20T09:08:11;93028.41;;;9.14;76.63
52735;BME280;38631;47.572;10.704;2022-09-20T09:10:43;93029.91;;;9.20;77.22
52735;BME280;38631;47.572;10.704;2022-09-20T09:16:11;93029.75;;;9.36;76.41
52735;BME280;38631;47.572;10.704;2022-09-20T09:18:40;93020.00;;;9.50;78.72
52735;BME280;38631;47.572;10.704;2022-09-20T09:21:07;93020.81;;;9.50;76.79
52735;BME280;38631;47.572;10.704;2022-09-20T09:23:44;93026.53;;;9.39;74.69
52735;BME280;38631;47.572;10.704;2022-09-20T09:26:24;93025.69;;;9.43;76.30
52735;BME280;38631;47.572;10.704;2022-09-20T09:29:19;93020.56;;;9.47;74.78
52735;BME280;38631;47.572;10.704;2022-09-20T09:31:47;93016.56;;;9.49;73.01
52735;BME280;38631;47.572;10.704;2022-09-20T09:34:26;93018.09;;;9.56;73.90
52735;BME280;38631;47.572;10.704;2022-09-20T09:36:52;93014.63;;;9.55;72.60
52735;BME280;38631;47.572;10.704;2022-09-20T09:39:28;93015.38;;;9.61;72.43
52735;BME280;38631;47.572;10.704;2022-09-20T09:41:55;93014.28;;;9.62;73.52
52735;BME280;38631;47.572;10.704;2022-09-20T09:44:24;93012.91;;;9.64;77.57
52735;BME280;38631;47.572;10.704;2022-09-20T09:46:51;93007.19;;;9.76;75.90
52735;BME280;38631;47.572;10.704;2022-09-20T09:49:59;93011.88;;;9.98;72.18
52735;BME280;38631;47.572;10.704;2022-09-20T09:52:24;93003.66;;;10.00;69.41
52735;BME280;38631;47.572;10.704;2022-09-20T09:54:53;93002.78;;;10.04;71.53
52735;BME280;38631;47.572;10.704;2022-09-20T09:57:43;92999.94;;;10.01;69.41
52735;BME280;38631;47.572;10.704;2022-09-20T10:00:20;93003.38;;;10.01;69.58
52735;BME280;38631;47.572;10.704;2022-09-20T10:08:46;93004.38;;;9.86;73.06
52735;BME280;38631;47.572;10.704;2022-09-20T10:19:49;93006.91;;;9.59;76.51
52735;BME280;38631;47.572;10.704;2022-09-20T10:22:53;93000.59;;;9.55;78.45
52735;BME280;38631;47.572;10.704;2022-09-20T10:36:40;92995.72;;;9.81;79.41
52735;BME280;38631;47.572;10.704;2022-09-20T10:39:36;92995.50;;;9.96;77.79
52735;BME280;38631;47.572;10.704;2022-09-20T10:45:35;92999.53;;;10.07;77.18
52735;BME280;38631;47.572;10.704;2022-09-20T10:48:31;93007.66;;;10.16;77.28
52735;BME280;38631;47.572;10.704;2022-09-20T10:51:12;92996.59;;;10.28;76.64
52735;BME280;38631;47.572;10.704;2022-09-20T10:56:36;93000.66;;;10.39;75.82
52735;BME280;38631;47.572;10.704;2022-09-20T11:02:05;92999.28;;;10.23;76.34
52735;BME280;38631;47.572;10.704;2022-09-20T11:05:07;93014.75;;;10.02;77.41
52735;BME280;38631;47.572;10.704;2022-09-20T11:08:04;92999.09;;;9.86;77.54
52735;BME280;38631;47.572;10.704;2022-09-20T11:10:36;93005.06;;;9.78;77.62
52735;BME280;38631;47.572;10.704;2022-09-20T11:15:56;93012.13;;;9.83;77.32
52735;BME280;38631;47.572;10.704;2022-09-20T11:24:42;93014.97;;;10.05;79.47
52735;BME280;38631;47.572;10.704;2022-09-20T11:27:14;93015.63;;;9.97;78.16
52735;BME280;38631;47.572;10.704;2022-09-20T11:29:56;93018.25;;;10.16;79.99
52735;BME280;38631;47.572;10.704;2022-09-20T11:32:46;93015.91;;;9.95;77.26
52735;BME280;38631;47.572;10.704;2022-09-20T11:35:23;93019.44;;;9.91;77.46
52735;BME280;38631;47.572;10.704;2022-09-20T11:37:59;93019.06;;;9.98;79.60
52735;BME280;38631;47.572;10.704;2022-09-20T11:40:33;93018.63;;;10.09;80.20
52735;BME280;38631;47.572;10.704;2022-09-20T11:43:03;93018.66;;;10.23;80.77
52735;BME280;38631;47.572;10.704;2022-09-20T11:45:31;93014.94;;;10.24;78.09
52735;BME280;38631;47.572;10.704;2022-09-20T11:53:53;93021.19;;;10.14;80.14
52735;BME280;38631;47.572;10.704;2022-09-20T11:56:24;93014.91;;;9.91;77.79
52735;BME280;38631;47.572;10.704;2022-09-20T11:58:53;93012.97;;;9.97;78.99
52735;BME280;38631;47.572;10.704;2022-09-20T12:01:26;93018.63;;;10.09;79.46
52735;BME280;38631;47.572;10.704;2022-09-20T12:03:56;93015.88;;;10.14;77.90
52735;BME280;38631;47.572;10.704;2022-09-20T12:06:32;93007.94;;;10.14;76.66
52735;BME280;38631;47.572;10.704;2022-09-20T12:09:02;93007.56;;;10.21;78.62
52735;BME280;38631;47.572;10.704;2022-09-20T12:11:33;93009.91;;;10.23;76.95
52735;BME280;38631;47.572;10.704;2022-09-20T12:14:03;93012.88;;;10.21;77.00
52735;BME280;38631;47.572;10.704;2022-09-20T12:16:41;92998.19;;;10.29;78.10
52735;BME280;38631;47.572;10.704;2022-09-20T12:19:11;93001.91;;;10.28;77.16
52735;BME280;38631;47.572;10.704;2022-09-20T12:24:35;93003.69;;;10.32;75.71
52735;BME280;38631;47.572;10.704;2022-09-20T12:27:19;92999.66;;;10.35;76.12
52735;BME280;38631;47.572;10.704;2022-09-20T12:38:25;92992.50;;;10.49;74.64
52735;BME280;38631;47.572;10.704;2022-09-20T12:41:12;92989.94;;;10.44;74.86
52735;BME280;38631;47.572;10.704;2022-09-20T12:43:51;93004.38;;;10.38;75.13
52735;BME280;38631;47.572;10.704;2022-09-20T12:46:33;93001.91;;;10.28;74.59
52735;BME280;38631;47.572;10.704;2022-09-20T12:55:10;92999.97;;;10.14;76.15
52735;BME280;38631;47.572;10.704;2022-09-20T12:57:37;92996.81;;;10.12;75.51
52735;BME280;38631;47.572;10.704;2022-09-20T13:00:05;93000.91;;;10.05;76.23
52735;BME280;38631;47.572;10.704;2022-09-20T13:05:36;93007.63;;;9.83;76.97
52735;BME280;38631;47.572;10.704;2022-09-20T13:08:26;93012.34;;;9.86;76.26
52735;BME280;38631;47.572;10.704;2022-09-20T13:13:38;93012.84;;;9.88;79.00
52735;BME280;38631;47.572;10.704;2022-09-20T13:16:06;93011.84;;;9.84;78.92
52735;BME280;38631;47.572;10.704;2022-09-20T13:18:40;93011.56;;;9.86;78.76
52735;BME280;38631;47.572;10.704;2022-09-20T13:21:06;93010.59;;;9.95;79.51
52735;BME280;38631;47.572;10.704;2022-09-20T13:23:49;93018.28;;;9.97;80.01
52735;BME280;38631;47.572;10.704;2022-09-20T13:26:21;93014.50;;;10.03;81.54
52735;BME280;38631;47.572;10.704;2022-09-20T13:28:51;93008.28;;;10.08;79.92
52735;BME280;38631;47.572;10.704;2022-09-20T13:31:23;93008.59;;;10.06;79.92
52735;BME280;38631;47.572;10.704;2022-09-20T13:33:49;93009.81;;;10.14;78.03
52735;BME280;38631;47.572;10.704;2022-09-20T13:36:23;93012.22;;;10.10;79.44
52735;BME280;38631;47.572;10.704;2022-09-20T13:38:50;93006.56;;;10.17;81.77
52735;BME280;38631;47.572;10.704;2022-09-20T13:41:16;93009.34;;;10.26;80.81
52735;BME280;38631;47.572;10.704;2022-09-20T13:43:43;93007.25;;;10.23;80.08
52735;BME280;38631;47.572;10.704;2022-09-20T13:46:13;93010.00;;;10.17;80.77
52735;BME280;38631;47.572;10.704;2022-09-20T13:48:40;93014.25;;;10.19;78.66
52735;BME280;38631;47.572;10.704;2022-09-20T13:51:23;93012.97;;;10.16;78.86
52735;BME280;38631;47.572;10.704;2022-09-20T13:53:49;93008.50;;;10.11;76.41
52735;BME280;38631;47.572;10.704;2022-09-20T13:56:35;93019.13;;;10.11;77.27
52735;BME280;38631;47.572;10.704;2022-09-20T13:59:03;93012.22;;;10.10;76.66
52735;BME280;38631;47.572;10.704;2022-09-20T14:01:35;93009.50;;;10.15;77.29
52735;BME280;38631;47.572;10.704;2022-09-20T14:04:04;93016.91;;;10.19;79.03
52735;BME280;38631;47.572;10.704;2022-09-20T14:06:31;93012.88;;;10.21;79.11
52735;BME280;38631;47.572;10.704;2022-09-20T14:08:58;93011.28;;;10.20;78.36
52735;BME280;38631;47.572;10.704;2022-09-20T14:11:28;93006.44;;;10.08;76.71
52735;BME280;38631;47.572;10.704;2022-09-20T14:13:56;93009.81;;;9.95;75.78
52735;BME280;38631;47.572;10.704;2022-09-20T14:16:27;93010.97;;;9.89;74.91
52735;BME280;38631;47.572;10.704;2022-09-20T14:18:54;93011.41;;;9.96;74.81
52735;BME280;38631;47.572;10.704;2022-09-20T14:21:22;93016.63;;;10.01;75.97
52735;BME280;38631;47.572;10.704;2022-09-20T14:23:52;93020.06;;;10.02;76.66
52735;BME280;38631;47.572;10.704;2022-09-20T14:26:24;93014.75;;;10.02;75.58
52735;BME280;38631;47.572;10.704;2022-09-20T14:28:50;93013.41;;;10.04;76.63
52735;BME280;38631;47.572;10.704;2022-09-20T14:31:30;93011.59;;;10.00;76.65
52735;BME280;38631;47.572;10.704;2022-09-20T14:33:59;93010.41;;;9.92;76.66
52735;BME280;38631;47.572;10.704;2022-09-20T14:36:28;93013.25;;;9.95;76.42
52735;BME280;38631;47.572;10.704;2022-09-20T14:38:57;93009.81;;;9.95;75.85
52735;BME280;38631;47.572;10.704;2022-09-20T14:41:25;93014.53;;;9.98;77.51
52735;BME280;38631;47.572;10.704;2022-09-20T14:43:55;93020.16;;;9.97;77.79
52735;BME280;38631;47.572;10.704;2022-09-20T14:46:28;93017.56;;;9.91;76.90
52735;BME280;38631;47.572;10.704;2022-09-20T14:49:18;93024.44;;;9.92;77.11
52735;BME280;38631;47.572;10.704;2022-09-20T14:51:43;93019.00;;;9.84;75.38
52735;BME280;38631;47.572;10.704;2022-09-20T14:56:36;93015.34;;;9.80;76.64
52735;BME280;38631;47.572;10.704;2022-09-20T15:01:52;93015.69;;;9.92;77.34
52735;BME280;38631;47.572;10.704;2022-09-20T15:04:20;93011.75;;;9.89;76.06
52735;BME280;38631;47.572;10.704;2022-09-20T15:06:47;93011.50;;;9.91;76.78
52735;BME280;38631;47.572;10.704;2022-09-20T15:09:12;93010.91;;;9.94;75.81
52735;BME280;38631;47.572;10.704;2022-09-20T15:11:38;93011.75;;;9.89;75.66
52735;BME280;38631;47.572;10.704;2022-09-20T15:14:05;93022.38;;;9.89;76.42
52735;BME280;38631;47.572;10.704;2022-09-20T15:16:30;93016.56;;;9.87;76.21
52735;BME280;38631;47.572;10.704;2022-09-20T15:18:57;93018.22;;;9.83;76.13
52735;BME280;38631;47.572;10.704;2022-09-20T15:21:22;93012.69;;;9.80;78.57
52735;BME280;38631;47.572;10.704;2022-09-20T15:23:48;93019.88;;;9.79;77.22
52735;BME280;38631;47.572;10.704;2022-09-20T15:26:14;93025.25;;;9.74;75.07
52735;BME280;38631;47.572;10.704;2022-09-20T15:28:40;93021.25;;;9.77;76.08
52735;BME280;38631;47.572;10.704;2022-09-20T15:31:06;93024.97;;;9.76;77.25
52735;BME280;38631;47.572;10.704;2022-09-20T15:33:32;93025.03;;;9.70;78.06
52735;BME280;38631;47.572;10.704;2022-09-20T15:35:59;93027.19;;;9.68;77.16
52735;BME280;38631;47.572;10.704;2022-09-20T15:38:25;93031.75;;;9.63;78.57
52735;BME280;38631;47.572;10.704;2022-09-20T15:40:53;93023.97;;;9.71;77.98
52735;BME280;38631;47.572;10.704;2022-09-20T15:43:21;93028.63;;;9.61;78.76
52735;BME280;38631;47.572;10.704;2022-09-20T15:45:56;93032.50;;;9.68;79.93
52735;BME280;38631;47.572;10.704;2022-09-20T15:48:25;93026.19;;;9.64;79.50
52735;BME280;38631;47.572;10.704;2022-09-20T15:51:05;93030.03;;;9.72;76.63
52735;BME280;38631;47.572;10.704;2022-09-20T15:55:59;93036.91;;;9.73;75.83
52735;BME280;38631;47.572;10.704;2022-09-20T15:58:28;93038.06;;;9.67;76.27
52735;BME280;38631;47.572;10.704;2022-09-20T16:01:01;93038.06;;;9.67;75.49
52735;BME280;38631;47.572;10.704;2022-09-20T16:03:30;93043.44;;;9.62;77.34
52735;BME280;38631;47.572;10.704;2022-09-20T16:05:57;93040.78;;;9.62;74.56
52735;BME280;38631;47.572;10.704;2022-09-20T16:08:23;93047.38;;;9.64;72.41
52735;BME280;38631;47.572;10.704;2022-09-20T16:10:58;93039.50;;;9.59;75.35
52735;BME280;38631;47.572;10.704;2022-09-20T16:13:24;93043.59;;;9.51;75.10
52735;BME280;38631;47.572;10.704;2022-09-20T16:15:54;93038.06;;;9.48;75.53
52735;BME280;38631;47.572;10.704;2022-09-20T16:18:20;93051.47;;;9.57;76.93
52735;BME280;38631;47.572;10.704;2022-09-20T16:21:08;93050.44;;;9.52;78.29
52735;BME280;38631;47.572;10.704;2022-09-20T16:23:34;93047.09;;;9.47;74.27
52735;BME280;38631;47.572;10.704;2022-09-20T16:26:01;93052.56;;;9.56;75.77
52735;BME280;38631;47.572;10.704;2022-09-20T16:28:27;93047.53;;;9.54;78.96
52735;BME280;38631;47.572;10.704;2022-09-20T16:30:56;93055.09;;;9.42;77.21
52735;BME280;38631;47.572;10.704;2022-09-20T16:33:22;93054.97;;;9.33;78.40
52735;BME280;38631;47.572;10.704;2022-09-20T16:35:47;93059.19;;;9.34;77.77
52735;BME280;38631;47.572;10.704;2022-09-20T16:38:13;93067.41;;;9.33;79.02
52735;BME280;38631;47.572;10.704;2022-09-20T16:40:39;93053.66;;;9.30;76.71
52735;BME280;38631;47.572;10.704;2022-09-20T16:43:04;93061.88;;;9.29;75.63
52735;BME280;38631;47.572;10.704;2022-09-20T16:45:33;93065.06;;;9.31;78.06
52735;BME280;38631;47.572;10.704;2022-09-20T16:47:58;93071.53;;;9.20;73.49
52735;BME280;38631;47.572;10.704;2022-09-20T16:50:28;93072.31;;;9.20;76.64
52735;BME280;38631;47.572;10.704;2022-09-20T16:52:54;93078.06;;;9.27;79.05
52735;BME280;38631;47.572;10.704;2022-09-20T16:55:20;93075.47;;;9.22;79.21
52735;BME280;38631;47.572;10.704;2022-09-20T16:57:49;93081.53;;;9.28;77.68
52735;BME280;38631;47.572;10.704;2022-09-20T17:00:15;93084.78;;;9.20;81.20
52735;BME280;38631;47.572;10.704;2022-09-20T17:02:50;93081.41;;;9.14;80.65
52735;BME280;38631;47.572;10.704;2022-09-20T17:05:16;93086.13;;;9.17;81.44
52735;BME280;38631;47.572;10.704;2022-09-20T17:07:42;93085.19;;;9.08;82.08
52735;BME280;38631;47.572;10.704;2022-09-20T17:10:11;93097.09;;;9.11;82.72
52735;BME280;38631;47.572;10.704;2022-09-20T17:12:36;93091.88;;;9.00;82.83
52735;BME280;38631;47.572;10.704;2022-09-20T17:15:09;93095.91;;;8.93;83.01